Boyd, Minnesota
Current Conditions -  °F | °C
As of 4:14 AM on Monday 26 Jan 2015 (Local Time) from KMVE Reporting Station
Overcast Overcast  
Wind Chill: 25°   Ceiling: 11000
Heat Index: 34°   Visibility: 10mi
Dew Point: 34°   Wind: 13mph
Humidity: 100%   Direction: 240°WSW
Pressure: 29.71"   Gusts: 18mph
Location:  44.85°N, 95.9°W
Report Text: KMVE 261014Z AUTO 24011G16KT 10SM SCT070 OVC110 01/01 A2971 RMK AO2
Loading
Personal Weather Stations






























Interactive Weather Map New forecast layout! Learn more

10-Day Weather Forecast

Advertisements
Track Severe Weather on mobile